ADDS METAR Data INFO
IDs: Format: Raw Decoded Include TAF

Data at: 2258 UTC 16 Jan 2018

KHND 162256Z 36004KT 10SM CLR 16/00 A3020 RMK AO2 SLP223 T01610000 $
KHND 162156Z 35004KT 10SM CLR 16/01 A3020 RMK AO2 SLP225 T01610006 $
KHND 162056Z 01003KT 10SM SCT100 14/01 A3021 RMK AO2 SLP227 T01440011 58017 $
KHND 161956Z 00000KT 10SM SCT110 14/01 A3022 RMK AO2 SLP232 T01440011 $
KHND 161856Z 32004KT 10SM CLR 14/02 A3026 RMK AO2 SLP245 T01390017 $
KHND 161756Z 00000KT 10SM FEW034 SCT047 SCT085 14/03 A3026 RMK AO2 SLP244 T01390028 10139 20067 53012 $
KHND 161656Z 17004KT 10SM CLR 11/05 A3024 RMK AO2 SLP241 T01060050 $
KHND 161556Z 16006KT 10SM CLR 09/03 A3022 RMK AO2 SLP236 T00890028 $
KHND 161456Z 16006KT 10SM CLR 07/02 A3022 RMK AO2 SLP237 T00670022 53014 $
KHND 161356Z 15004KT 10SM CLR 07/02 A3019 RMK AO2 SLP226 T00670022 $
KHND 161256Z AUTO 16009KT 10SM CLR 07/02 A3018 RMK AO2 SLP220 T00720022 $
KHND 161156Z AUTO 16006KT 10SM CLR 07/03 A3017 RMK AO2 SLP216 6//// 7//// T00720028 10111 20072 50002 $
KHND 161056Z AUTO 17006KT 10SM CLR 09/03 A3018 RMK AO2 SLP216 T00890033 $
KHND 160956Z AUTO 16005KT 10SM CLR 09/03 A3017 RMK AO2 SLP212 T00940033 $
KHND 160856Z AUTO 17006KT 10SM CLR 10/04 A3017 RMK AO2 SLP212 6//// T01000044 53001 $
KHND 160756Z AUTO 19005KT 10SM 11/05 A3016 RMK AO2 SLP208 T01060050 401830056 $
KHND 160656Z AUTO 17004KT 10SM CLR 11/04 A3017 RMK AO2 SLP213 T01110039 $
KHND 160556Z AUTO 20005KT 10SM CLR 11/04 A3017 RMK AO2 SLP214 T01110044 10183 20100 50002 $
KHND 160456Z AUTO 16007KT 10SM CLR 11/04 A3017 RMK AO2 SLP217 T01060039 $
KHND 160356Z 17005KT 10SM CLR 11/04 A3017 RMK AO2 SLP218 T01110044 $
KHND 160256Z 18006KT 10SM CLR 12/04 A3016 RMK AO2 SLP216 T01220044 53008 $
KHND 160156Z 00000KT 10SM CLR 14/04 A3015 RMK AO2 SLP211 T01390039 $
KHND 160056Z 00000KT 10SM CLR 17/01 A3014 RMK AO2 SLP204 T01720011 $
KHND 152356Z 00000KT 10SM CLR 18/01 A3013 RMK AO2 SLP202 T01780011 10183 20133 55004 $
KHND 152256Z 02004KT 10SM CLR 18/02 A3013 RMK AO2 SLP199 T01830017 $
KHND 152156Z 02004KT 10SM CLR 18/01 A3014 RMK AO2 SLP202 T01780011 $
KHND 152056Z 03006KT 10SM CLR 18/01 A3015 RMK AO2 SLP205 T01780011 58023 $
KHND 151956Z 36003KT 10SM CLR 17/01 A3017 RMK AO2 SLP215 T01670011 $
KHND 151856Z 00000KT 10SM CLR 15/01 A3020 RMK AO2 SLP226 T01500006 $
KHND 151756Z 00000KT 10SM CLR 13/02 A3022 RMK AO2 SLP234 T01330022 10139 20056 51009 $
KHND 151656Z 22005KT 10SM CLR 12/03 A3021 RMK AO2 SLP232 T01170028 $
KHND 151556Z 19007KT 10SM CLR 08/02 A3020 RMK AO2 SLP230 T00830022 $
KHND 151456Z 19009KT 10SM CLR 07/02 A3019 RMK AO2 SLP228 T00670017 53001 $
KHND 151356Z 19007KT 10SM CLR 06/02 A3019 RMK AO2 SLP227 T00610022 $
KHND 151256Z AUTO 19006KT 10SM CLR 07/02 A3018 RMK AO2 SLP221 T00670022 $
KHND 151156Z AUTO 19006KT 10SM CLR 07/02 A3018 RMK AO2 SLP221 T00670022 10094 20067 58003 $